Time;durP1;ratioP1;P1;durP2;ratioP2;P2;SDS_P1;SDS_P2;PMS_P1;PMS_P2;Temp;Humidity;BMP_temperature;BMP_pressure;BME280_temperature;BME280_humidity;BME280_pressure;Samples;Min_cycle;Max_cycle;Signal;HPM_P1;HPM_P2
2021/05/13 04:20:41;;;;;;;1999.90;999.90;;;;;;;19.86;61.57;99606.44;1746908;79;33093;-59
2021/05/13 04:23:09;;;;;;;369.75;195.05;;;;;;;20.23;63.34;99606.75;1692996;81;64788;-60
2021/05/13 04:25:37;;;;;;;44.20;30.25;;;;;;;21.74;60.58;99614.88;1721589;82;21111;-58
2021/05/13 04:28:06;;;;;;;31.17;23.70;;;;;;;22.65;57.91;99614.97;1718587;82;21029;-58
2021/05/13 04:30:35;;;;;;;33.78;18.12;;;;;;;22.90;56.42;99622.55;1705187;82;20999;-59
2021/05/13 04:33:02;;;;;;;33.92;13.75;;;;;;;22.88;56.07;99625.90;1703020;83;21033;-60
2021/05/13 04:35:29;;;;;;;48.58;15.00;;;;;;;22.78;56.04;99618.76;1707643;83;21610;-60
2021/05/13 04:37:56;;;;;;;39.20;12.10;;;;;;;22.68;56.28;99621.23;1707243;83;21878;-59
2021/05/13 04:40:23;;;;;;;1588.35;852.90;;;;;;;22.59;56.56;99610.42;1708751;83;22041;-59
2021/05/13 04:42:49;;;;;;;157.82;77.53;;;;;;;22.89;58.49;99606.30;1717583;82;20963;-61
2021/05/13 04:45:16;;;;;;;65.25;25.10;;;;;;;24.17;55.66;99597.69;1707298;82;21617;-61
2021/05/13 04:50:11;;;;;;;31.68;13.58;;;;;;;24.85;52.26;99594.61;1724622;82;24439;-56
2021/05/13 04:52:40;;;;;;;30.43;10.93;;;;;;;24.66;52.23;99589.07;1725664;83;21593;-57
2021/05/13 04:55:11;;;;;;;20.62;10.35;;;;;;;24.41;52.37;99587.52;1724668;83;21010;-57
2021/05/13 04:57:38;;;;;;;25.80;9.25;;;;;;;24.15;52.48;99589.92;1725576;83;21069;-58
2021/05/13 05:00:07;;;;;;;27.75;8.80;;;;;;;23.95;52.75;99575.70;1723997;83;21021;-57
2021/05/13 05:02:34;;;;;;;27.98;9.33;;;;;;;23.77;52.84;99581.08;1707549;83;21433;-58
2021/05/13 05:05:01;;;;;;;20.60;8.55;;;;;;;23.62;53.02;99590.54;1725254;82;21618;-58
2021/05/13 05:07:28;;;;;;;28.12;8.48;;;;;;;23.45;53.25;99589.53;1724666;82;21037;-58
2021/05/13 05:09:56;;;;;;;21.87;7.87;;;;;;;23.35;53.45;99594.37;1696622;84;21607;-58
2021/05/13 05:12:23;;;;;;;25.12;8.05;;;;;;;23.23;53.66;99597.25;1718328;82;21085;-58
2021/05/13 05:14:50;;;;;;;22.75;7.30;;;;;;;23.14;53.78;99589.92;1728268;82;21024;-60
2021/05/13 05:17:17;;;;;;;19.25;7.12;;;;;;;23.07;53.88;99587.72;1720574;82;22313;-59
2021/05/13 05:19:45;;;;;;;469.02;392.35;;;;;;;22.99;54.00;99592.68;1712208;82;21010;-58
2021/05/13 05:22:12;;;;;;;52.23;30.08;;;;;;;23.26;55.64;99596.86;1716813;83;21085;-60
2021/05/13 05:24:39;;;;;;;25.85;11.70;;;;;;;24.48;53.06;99598.47;1717156;83;21026;-58
2021/05/13 05:27:06;;;;;;;24.35;9.80;;;;;;;25.12;50.77;99597.27;1717080;83;21843;-57
2021/05/13 05:29:33;;;;;;;19.92;8.28;;;;;;;25.17;49.95;99600.13;1717198;83;20998;-58
2021/05/13 05:31:59;;;;;;;18.52;7.15;;;;;;;24.99;49.79;99606.06;1716640;83;21070;-59
2021/05/13 05:34:26;;;;;;;22.45;8.30;;;;;;;24.73;49.97;99605.88;1716676;83;21075;-59
2021/05/13 05:36:52;;;;;;;16.20;6.53;;;;;;;24.48;50.21;99610.44;1719347;83;21031;-58
2021/05/13 05:39:19;;;;;;;17.70;6.85;;;;;;;24.25;50.50;99607.34;1720821;83;21017;-58
2021/05/13 05:41:46;;;;;;;16.55;6.53;;;;;;;24.05;50.80;99606.27;1720575;83;20953;-59
2021/05/13 05:44:13;;;;;;;15.70;6.47;;;;;;;23.87;51.05;99597.46;1720938;83;21583;-57
2021/05/13 05:46:41;;;;;;;16.12;6.58;;;;;;;23.72;51.29;99603.45;1720949;83;20984;-57
2021/05/13 05:49:09;;;;;;;15.23;6.70;;;;;;;23.58;51.50;99611.88;1720625;83;21012;-57
2021/05/13 05:51:36;;;;;;;16.42;6.10;;;;;;;23.46;51.71;99607.60;1720505;83;21074;-58
2021/05/13 05:54:04;;;;;;;14.98;6.33;;;;;;;23.35;51.92;99604.19;1720777;83;21136;-57
2021/05/13 05:56:31;;;;;;;13.28;5.97;;;;;;;23.26;52.07;99604.83;1720997;83;21500;-58
2021/05/13 05:58:58;;;;;;;11.48;6.00;;;;;;;23.16;52.22;99607.31;1720974;83;21020;-59
2021/05/13 06:01:26;;;;;;;14.60;5.92;;;;;;;23.10;52.36;99611.23;1719731;83;21052;-58
2021/05/13 06:03:56;;;;;;;13.45;5.83;;;;;;;23.02;52.45;99613.02;1720893;83;21125;-58
2021/05/13 06:06:22;;;;;;;13.53;5.75;;;;;;;22.97;52.55;99607.98;1720653;83;20973;-58
2021/05/13 06:08:50;;;;;;;14.40;6.28;;;;;;;22.91;52.62;99613.56;1721043;83;20993;-58
2021/05/13 06:11:19;;;;;;;13.78;5.95;;;;;;;22.86;52.68;99608.02;1715513;83;21040;-59
2021/05/13 06:13:46;;;;;;;12.98;5.37;;;;;;;22.82;52.76;99610.20;1721031;83;21145;-59
2021/05/13 06:16:12;;;;;;;13.35;6.25;;;;;;;22.77;52.80;99611.81;1720900;83;21085;-57
2021/05/13 06:18:50;;;;;;;12.58;5.70;;;;;;;22.76;52.87;99618.13;1720803;83;22216;-58
2021/05/13 06:21:18;;;;;;;11.97;5.35;;;;;;;22.73;52.87;99617.50;1699737;84;21053;-59
2021/05/13 06:23:49;;;;;;;15.23;6.33;;;;;;;22.73;52.84;99612.70;1702640;83;21072;-59
2021/05/13 06:26:30;;;;;;;11.93;5.62;;;;;;;22.75;52.79;99616.48;1728905;82;21083;-59
2021/05/13 06:28:59;;;;;;;15.08;5.85;;;;;;;22.75;52.75;99614.64;1729278;83;21583;-57
2021/05/13 06:31:25;;;;;;;11.80;5.42;;;;;;;22.76;52.70;99620.78;1729312;83;20967;-58
2021/05/13 06:33:52;;;;;;;10.80;5.55;;;;;;;22.75;52.71;99617.30;1729484;83;21007;-58
2021/05/13 06:36:19;;;;;;;12.00;5.30;;;;;;;22.75;52.70;99624.45;1729446;83;21002;-57
2021/05/13 06:38:48;;;;;;;13.25;5.22;;;;;;;22.73;52.66;99617.50;1729222;82;21041;-58
2021/05/13 06:41:16;;;;;;;10.48;5.10;;;;;;;22.72;52.67;99613.20;1729310;82;21029;-59
2021/05/13 06:43:43;;;;;;;9.38;4.50;;;;;;;22.71;52.66;99611.55;1729290;82;21005;-57
2021/05/13 06:46:10;;;;;;;13.25;6.10;;;;;;;22.68;52.68;99613.27;1729389;83;21022;-57
2021/05/13 06:48:39;;;;;;;11.03;5.28;;;;;;;22.68;52.70;99613.78;1729498;82;21018;-60
2021/05/13 06:51:08;;;;;;;10.45;4.80;;;;;;;22.65;52.70;99615.48;1729240;83;21589;-57
2021/05/13 06:53:35;;;;;;;10.80;4.90;;;;;;;22.65;52.73;99611.51;1729355;83;21079;-59
2021/05/13 06:56:02;;;;;;;11.33;4.90;;;;;;;22.62;52.75;99614.55;1729417;82;21598;-58
2021/05/13 06:58:30;;;;;;;7.87;4.28;;;;;;;22.60;52.75;99616.05;1729371;82;20985;-58
2021/05/13 07:00:56;;;;;;;11.93;5.20;;;;;;;22.58;52.74;99613.59;1729229;82;21081;-57
2021/05/13 07:03:23;;;;;;;8.95;4.35;;;;;;;22.57;52.78;99616.42;1729499;83;20977;-66
2021/05/13 07:05:49;;;;;;;10.28;4.85;;;;;;;22.56;52.75;99614.78;1729459;82;21078;-58
2021/05/13 07:08:17;;;;;;;9.93;5.00;;;;;;;22.55;52.76;99622.42;1729217;82;21006;-59
2021/05/13 07:10:44;;;;;;;8.65;4.70;;;;;;;22.54;52.76;99618.96;1727079;83;21031;-59
2021/05/13 07:13:11;;;;;;;10.90;4.75;;;;;;;22.53;52.76;99615.98;1726894;83;21062;-59
2021/05/13 07:15:39;;;;;;;9.58;4.60;;;;;;;22.52;52.77;99613.02;1729147;82;21019;-59
2021/05/13 07:18:13;;;;;;;9.15;4.08;;;;;;;22.52;52.76;99620.17;1729378;82;21084;-57
2021/05/13 07:20:40;;;;;;;8.48;4.55;;;;;;;22.50;52.76;99623.00;1722648;82;21610;-58
2021/05/13 07:23:06;;;;;;;11.05;4.87;;;;;;;22.49;52.74;99616.57;1718769;83;21032;-58
2021/05/13 07:25:35;;;;;;;8.23;5.30;;;;;;;22.50;52.73;99622.20;1718738;83;20931;-58
2021/05/13 07:28:02;;;;;;;10.28;4.62;;;;;;;22.48;52.74;99625.02;1718840;83;20986;-58
2021/05/13 07:30:30;;;;;;;10.48;4.60;;;;;;;22.47;52.72;99631.34;1718733;83;21069;-57
2021/05/13 07:32:56;;;;;;;8.93;4.90;;;;;;;22.50;52.68;99630.16;1718624;83;21082;-57
2021/05/13 07:35:26;;;;;;;9.93;5.10;;;;;;;22.53;52.62;99637.70;1718676;83;20962;-57
2021/05/13 07:37:54;;;;;;;10.40;4.60;;;;;;;22.57;52.50;99636.32;1718659;83;21046;-57
2021/05/13 07:40:23;;;;;;;9.40;4.75;;;;;;;22.60;52.45;99632.48;1718564;83;21038;-58
2021/05/13 07:42:52;;;;;;;7.87;3.92;;;;;;;22.62;52.35;99628.62;1696275;83;21879;-58
2021/05/13 07:45:19;;;;;;;8.75;4.42;;;;;;;22.64;52.29;99633.75;1714148;83;21073;-59
2021/05/13 07:47:47;;;;;;;7.90;4.17;;;;;;;22.65;52.25;99632.73;1713891;83;20998;-57
2021/05/13 07:50:19;;;;;;;10.48;4.60;;;;;;;22.66;52.25;99631.73;1713965;83;21542;-57
2021/05/13 07:52:46;;;;;;;8.43;4.58;;;;;;;22.64;52.28;99637.21;1646246;87;21010;-58
2021/05/13 07:55:13;;;;;;;7.30;4.50;;;;;;;22.64;52.34;99637.73;1646093;87;21622;-56
2021/05/13 07:57:39;;;;;;;509.05;448.37;;;;;;;22.63;52.74;99631.59;1646228;87;21034;-57
2021/05/13 08:00:09;;;;;;;137.97;122.80;;;;;;;22.93;54.72;99630.13;1646040;87;21637;-58
2021/05/13 08:02:41;;;;;;;92.60;79.92;;;;;;;24.18;52.43;99634.75;1646230;87;20990;-57
2021/05/13 08:05:12;;;;;;;71.12;60.80;;;;;;;24.84;50.18;99633.75;1693443;83;20991;-58
2021/05/13 08:07:41;;;;;;;64.70;51.28;;;;;;;24.88;49.39;99628.82;1713980;83;21097;-57
2021/05/13 08:10:09;;;;;;;56.95;49.75;;;;;;;24.69;49.33;99633.09;1713953;83;20971;-57
2021/05/13 08:12:36;;;;;;;53.33;46.77;;;;;;;24.44;49.53;99633.16;1709808;83;21018;-58
2021/05/13 08:15:08;;;;;;;50.65;43.48;;;;;;;24.19;49.86;99627.08;1713930;83;21082;-58
2021/05/13 08:17:34;;;;;;;47.20;41.28;;;;;;;23.99;50.14;99626.18;1714048;83;21050;-57
2021/05/13 08:20:05;;;;;;;49.45;41.10;;;;;;;23.80;50.45;99625.89;1707594;83;21054;-64
2021/05/13 08:22:35;;;;;;;45.65;39.38;;;;;;;23.64;50.75;99627.02;1714504;83;21058;-66
2021/05/13 08:25:03;;;;;;;45.63;39.03;;;;;;;23.52;50.99;99630.74;1715721;83;21201;-63
2021/05/13 08:27:33;;;;;;;43.45;37.85;;;;;;;23.43;51.21;99626.59;1718806;83;21161;-63
2021/05/13 08:30:01;;;;;;;42.30;36.90;;;;;;;23.35;51.34;99624.92;1718842;83;21045;-64
2021/05/13 08:32:27;;;;;;;44.38;37.15;;;;;;;23.31;51.57;99622.34;1718753;83;21558;-66
2021/05/13 08:34:56;;;;;;;42.67;36.08;;;;;;;23.26;51.87;99624.27;1718440;83;21085;-67
2021/05/13 08:37:23;;;;;;;46.58;36.38;;;;;;;23.23;52.05;99619.83;1718964;83;21038;-62
2021/05/13 08:39:53;;;;;;;43.60;34.80;;;;;;;23.19;52.26;99622.03;1718933;83;21585;-63
2021/05/13 08:42:20;;;;;;;44.50;35.33;;;;;;;23.14;52.42;99621.79;1718866;83;21026;-64
2021/05/13 08:44:46;;;;;;;39.15;33.10;;;;;;;23.10;52.63;99620.53;1686675;85;21092;-64
2021/05/13 08:47:13;;;;;;;36.30;32.38;;;;;;;23.06;52.75;99625.91;1718789;83;20975;-63
2021/05/13 08:49:41;;;;;;;42.38;33.42;;;;;;;23.03;52.80;99625.80;1718793;83;21071;-63
2021/05/13 08:52:11;;;;;;;42.13;32.17;;;;;;;23.00;52.85;99626.19;1718922;83;21125;-64
2021/05/13 08:54:59;;;;;;;39.85;31.12;;;;;;;22.96;52.88;99620.42;1719020;83;21046;-65
2021/05/13 08:57:28;;;;;;;35.10;30.17;;;;;;;22.92;52.93;99615.21;1718837;83;21585;-64
2021/05/13 08:59:55;;;;;;;38.85;31.27;;;;;;;22.89;52.95;99627.54;1718858;83;21531;-64
2021/05/13 09:02:29;;;;;;;38.63;30.97;;;;;;;22.86;52.99;99626.59;1719019;83;21002;-63
2021/05/13 09:04:57;;;;;;;35.68;29.98;;;;;;;22.83;53.00;99617.69;1718871;83;21066;-64
2021/05/13 09:07:32;;;;;;;198.97;179.23;;;;;;;22.80;53.01;99618.06;1718938;83;21052;-64
2021/05/13 09:10:06;;;;;;;45.08;37.25;;;;;;;23.03;54.60;99615.19;1718990;83;21045;-64
2021/05/13 09:12:37;;;;;;;38.48;31.57;;;;;;;24.25;52.09;99616.66;1702617;83;21016;-63
2021/05/13 09:15:11;;;;;;;36.90;28.98;;;;;;;24.85;49.87;99613.25;1657952;86;21144;-65
2021/05/13 09:17:41;;;;;;;36.48;28.87;;;;;;;24.86;49.12;99613.56;1692453;84;20938;-66
2021/05/13 09:20:32;;;;;;;33.75;28.70;;;;;;;24.67;49.03;99620.48;1707109;83;21058;-64
2021/05/13 09:23:23;;;;;;;33.75;27.62;;;;;;;24.45;49.16;99620.16;1688268;84;21063;-65
2021/05/13 09:26:17;;;;;;;33.65;28.10;;;;;;;24.23;49.41;99621.36;1692679;84;21052;-65
2021/05/13 09:28:49;;;;;;;34.15;29.37;;;;;;;24.04;49.59;99625.08;1692489;84;21635;-64
2021/05/13 09:31:36;;;;;;;31.35;27.40;;;;;;;23.85;49.84;99619.44;1692384;84;21028;-65
2021/05/13 09:34:05;;;;;;;31.05;27.22;;;;;;;23.72;50.03;99622.06;1692514;84;21115;-66
2021/05/13 09:36:33;;;;;;;31.40;26.80;;;;;;;23.58;50.26;99621.98;1692532;84;21598;-63
2021/05/13 09:39:00;;;;;;;30.72;27.00;;;;;;;23.49;50.42;99621.02;1692330;84;21072;-66
2021/05/13 09:41:36;;;;;;;31.30;27.15;;;;;;;23.39;50.59;99622.72;1692519;84;20921;-63
2021/05/13 09:44:05;;;;;;;31.35;26.23;;;;;;;23.31;50.76;99619.19;1692307;84;21036;-55
2021/05/13 09:46:36;;;;;;;31.15;26.52;;;;;;;23.24;50.88;99622.80;1669597;84;21075;-56
2021/05/13 09:49:04;;;;;;;30.92;26.45;;;;;;;23.17;51.00;99620.08;1692105;84;21097;-56
2021/05/13 09:51:33;;;;;;;30.08;25.77;;;;;;;23.11;51.11;99622.17;1692181;84;21052;-57
2021/05/13 09:54:15;;;;;;;30.25;25.30;;;;;;;23.06;51.21;99631.22;1669535;84;20996;-58
2021/05/13 09:56:57;;;;;;;30.27;25.82;;;;;;;23.01;51.29;99628.64;1692258;84;21074;-56
2021/05/13 09:59:25;;;;;;;29.12;25.85;;;;;;;22.96;51.36;99625.73;1691528;84;21043;-56
2021/05/13 10:01:59;;;;;;;31.00;27.02;;;;;;;22.92;51.43;99628.48;1692196;84;21088;-56
2021/05/13 10:04:31;;;;;;;28.55;25.48;;;;;;;22.88;51.51;99629.36;1692133;84;20996;-57
2021/05/13 10:06:57;;;;;;;27.98;24.85;;;;;;;22.87;51.55;99624.25;1692096;84;21212;-57
2021/05/13 10:09:24;;;;;;;30.70;26.23;;;;;;;22.82;51.61;99626.14;1692322;84;20999;-56
2021/05/13 10:11:59;;;;;;;30.37;25.45;;;;;;;22.80;51.67;99621.52;1691047;84;21183;-57
2021/05/13 10:14:27;;;;;;;29.55;25.60;;;;;;;22.79;51.71;99622.53;1687623;85;21117;-57
2021/05/13 10:16:57;;;;;;;30.30;25.27;;;;;;;22.76;51.76;99622.11;1688205;84;21023;-64
2021/05/13 10:19:29;;;;;;;28.38;25.23;;;;;;;22.75;51.78;99627.10;1688926;84;21080;-57
2021/05/13 10:21:56;;;;;;;26.75;23.85;;;;;;;22.73;51.82;99621.48;1692112;84;21603;-55
2021/05/13 10:24:25;;;;;;;29.10;24.02;;;;;;;22.72;51.83;99624.34;1692223;84;21079;-57
2021/05/13 10:26:53;;;;;;;26.52;23.50;;;;;;;22.69;51.88;99621.54;1691396;84;21103;-56
2021/05/13 10:29:26;;;;;;;26.82;23.87;;;;;;;22.68;51.89;99628.38;1692380;84;21043;-63
2021/05/13 10:32:10;;;;;;;28.47;24.82;;;;;;;22.68;51.90;99623.08;1692714;84;21083;-62
2021/05/13 10:34:46;;;;;;;28.30;23.67;;;;;;;22.66;51.95;99619.27;1692152;84;20996;-63
2021/05/13 10:37:18;;;;;;;26.60;23.75;;;;;;;22.65;51.96;99614.97;1692718;84;20996;-62
2021/05/13 10:40:24;;;;;;;26.42;23.25;;;;;;;22.63;51.96;99619.64;1692608;84;21162;-61
2021/05/13 10:43:04;;;;;;;27.32;22.73;;;;;;;22.62;52.00;99627.29;1692762;84;20980;-63
2021/05/13 10:45:36;;;;;;;29.23;24.02;;;;;;;22.59;52.01;99619.70;1692786;84;21128;-64
2021/05/13 10:48:29;;;;;;;27.35;23.65;;;;;;;22.58;52.03;99618.90;1692501;84;21562;-64
2021/05/13 10:51:07;;;;;;;27.15;23.18;;;;;;;22.57;52.05;99615.93;1692081;84;21610;-63
2021/05/13 10:53:47;;;;;;;27.45;22.62;;;;;;;22.56;52.06;99618.27;1692529;84;21314;-56
2021/05/13 10:56:31;;;;;;;25.92;23.12;;;;;;;22.54;52.07;99612.81;1692170;84;21021;-56
2021/05/13 10:59:10;;;;;;;;;;;;;;;22.53;52.09;99616.48;1694642;84;21120;-56
2021/05/13 11:01:51;;;;;;;24.43;21.07;;;;;;;22.52;52.07;99614.34;1687943;85;20484;-55
2021/05/13 11:04:28;;;;;;;25.62;21.35;;;;;;;22.53;52.06;99605.87;1716657;83;21106;-57
2021/05/13 11:06:58;;;;;;;25.20;21.75;;;;;;;22.51;52.06;99607.40;1716685;83;21057;-58
2021/05/13 11:09:49;;;;;;;24.02;20.75;;;;;;;22.50;52.08;99604.95;1714005;83;20958;-57
2021/05/13 11:12:37;;;;;;;24.55;21.90;;;;;;;22.51;52.09;99605.27;1690191;84;21105;-57
2021/05/13 11:18:01;;;;;;;24.37;21.65;;;;;;;22.48;52.11;99601.14;1673831;85;21629;-63
2021/05/13 11:20:38;;;;;;;22.95;20.55;;;;;;;22.49;52.12;99599.33;1716122;83;21164;-64
2021/05/13 11:23:19;;;;;;;24.12;20.77;;;;;;;22.48;52.12;99599.01;1716789;83;21089;-64
2021/05/13 11:26:10;;;;;;;25.25;22.58;;;;;;;22.48;52.11;99604.31;1716593;83;21038;-65
2021/05/13 11:28:46;;;;;;;23.00;20.60;;;;;;;22.46;52.12;99601.84;1716808;83;21002;-65
2021/05/13 11:31:20;;;;;;;25.23;20.95;;;;;;;22.47;52.11;99600.02;1692284;84;21696;-66
2021/05/13 11:33:57;;;;;;;25.15;21.33;;;;;;;22.47;52.12;99598.69;1692146;84;21233;-66
2021/05/13 11:36:30;;;;;;;23.22;20.35;;;;;;;22.48;52.11;99602.98;1692154;84;21006;-64
2021/05/13 11:39:04;;;;;;;23.27;20.82;;;;;;;22.47;52.09;99598.69;1670354;84;21098;-65
2021/05/13 11:41:32;;;;;;;24.35;20.88;;;;;;;22.46;52.10;99596.53;1692200;84;21110;-64
2021/05/13 11:43:58;;;;;;;24.63;20.60;;;;;;;22.48;52.08;99595.03;1692244;84;21127;-65
2021/05/13 11:46:26;;;;;;;23.38;20.12;;;;;;;22.48;52.05;99596.36;1692187;84;21088;-64
2021/05/13 11:48:55;;;;;;;23.18;20.25;;;;;;;22.48;52.02;99600.34;1692136;84;21006;-65
2021/05/13 11:51:30;;;;;;;23.57;19.90;;;;;;;22.48;52.00;99599.81;1692277;84;21590;-64
2021/05/13 11:54:04;;;;;;;22.77;18.87;;;;;;;22.49;51.99;99595.34;1692196;84;20970;-66
2021/05/13 11:56:34;;;;;;;21.68;19.37;;;;;;;22.49;51.95;99598.80;1692155;84;21077;-66
2021/05/13 11:59:03;;;;;;;22.13;19.25;;;;;;;22.49;51.92;99594.83;1692042;84;21060;-67
2021/05/13 12:01:41;;;;;;;22.70;19.87;;;;;;;22.50;51.94;99598.31;1692301;84;20978;-64
2021/05/13 12:04:14;;;;;;;21.70;19.12;;;;;;;22.50;51.90;99603.10;1692255;84;20982;-64
2021/05/13 12:06:46;;;;;;;21.97;19.67;;;;;;;22.51;51.87;99597.30;1692156;84;21064;-64
2021/05/13 12:09:15;;;;;;;22.65;19.98;;;;;;;22.51;51.87;99602.09;1692302;84;21018;-64
2021/05/13 12:11:42;;;;;;;21.73;18.67;;;;;;;22.52;51.85;99602.92;1691171;84;21129;-64
2021/05/13 12:14:17;;;;;;;21.20;18.65;;;;;;;22.53;51.84;99600.07;1689131;83;21554;-63
2021/05/13 12:16:54;;;;;;;21.45;19.15;;;;;;;22.52;51.80;99603.73;1688083;84;21018;-63
2021/05/13 12:19:21;;;;;;;20.97;18.60;;;;;;;22.53;51.77;99597.41;1687769;84;21038;-59
2021/05/13 12:21:53;;;;;;;20.80;18.57;;;;;;;22.54;51.76;99596.89;1685814;85;21024;-58
2021/05/13 12:24:27;;;;;;;21.45;19.25;;;;;;;22.54;51.74;99607.02;1681437;85;21023;-58
2021/05/13 12:26:54;;;;;;;21.10;18.80;;;;;;;22.56;51.72;99603.67;1681217;85;21001;-59
2021/05/13 12:29:23;;;;;;;20.50;18.35;;;;;;;22.57;51.67;99587.23;1680192;85;21552;-55
2021/05/13 12:31:50;;;;;;;19.70;17.60;;;;;;;22.58;51.65;99589.70;1681310;85;20941;-56
2021/05/13 12:34:38;;;;;;;20.25;18.20;;;;;;;22.60;51.63;99597.47;1681567;85;21044;-57
2021/05/13 12:37:08;;;;;;;20.37;18.25;;;;;;;22.60;51.61;99588.70;1681241;85;21173;-58
2021/05/13 12:39:37;;;;;;;19.67;17.62;;;;;;;22.62;51.59;99595.97;1679992;84;20925;-56
2021/05/13 12:42:27;;;;;;;20.75;18.55;;;;;;;22.62;51.60;99595.97;1681519;85;20997;-56
2021/05/13 12:45:17;;;;;;;19.15;17.15;;;;;;;22.61;51.59;99584.52;1681474;85;21029;-56
2021/05/13 12:47:44;;;;;;;19.37;17.48;;;;;;;22.62;51.55;99580.04;1681274;85;21528;-56
2021/05/13 12:50:11;;;;;;;21.12;18.40;;;;;;;22.59;51.53;99582.55;1681295;85;21056;-56
2021/05/13 12:52:40;;;;;;;19.95;17.85;;;;;;;22.61;51.53;99578.40;1681243;85;20969;-57
2021/05/13 12:55:14;;;;;;;19.90;17.80;;;;;;;22.60;51.53;99580.22;1681614;85;21001;-57
2021/05/13 12:57:46;;;;;;;19.87;17.77;;;;;;;22.62;51.55;99578.72;1681503;84;21640;-56
2021/05/13 13:00:14;;;;;;;19.98;16.87;;;;;;;22.62;51.51;99586.16;1681522;85;21048;-57
2021/05/13 13:02:41;;;;;;;19.87;17.77;;;;;;;22.63;51.54;99591.78;1681602;85;21138;-57
2021/05/13 13:05:13;;;;;;;21.23;17.23;;;;;;;22.63;51.51;99595.76;1681488;85;20953;-57
2021/05/13 13:07:46;;;;;;;19.97;17.90;;;;;;;22.64;51.53;99588.64;1682005;85;21663;-56
2021/05/13 13:10:45;;;;;;;18.82;16.62;;;;;;;22.63;51.49;99583.81;1681604;85;20993;-56
2021/05/13 13:13:24;;;;;;;19.65;17.55;;;;;;;22.64;51.49;99585.45;1686793;85;21109;-56
2021/05/13 13:15:54;;;;;;;18.70;16.73;;;;;;;22.64;51.45;99586.78;1688228;85;21079;-56
2021/05/13 13:18:24;;;;;;;18.05;16.17;;;;;;;22.64;51.44;99592.09;1635399;86;20995;-57
2021/05/13 13:20:52;;;;;;;18.40;16.35;;;;;;;22.65;51.42;99588.43;1658580;86;21034;-56
2021/05/13 13:23:31;;;;;;;21.77;17.20;;;;;;;22.66;51.37;99583.44;1707465;83;21063;-57
2021/05/13 13:26:05;;;;;;;19.02;16.65;;;;;;;22.68;51.36;99589.90;1714350;83;21534;-56
2021/05/13 13:28:35;;;;;;;17.92;16.12;;;;;;;22.70;51.31;99589.20;1714530;83;21114;-57
2021/05/13 13:31:05;;;;;;;17.23;15.53;;;;;;;22.71;51.27;99593.50;1675356;84;21077;-57
2021/05/13 13:33:33;;;;;;;21.23;17.32;;;;;;;22.73;51.24;99589.63;1713945;83;21608;-56
2021/05/13 13:36:01;;;;;;;19.80;16.42;;;;;;;22.75;51.18;99583.30;1714300;83;21073;-56
2021/05/13 13:38:31;;;;;;;18.42;16.52;;;;;;;22.76;51.22;99579.64;1714459;83;21608;-56
2021/05/13 13:41:02;;;;;;;18.12;16.23;;;;;;;22.78;51.17;99576.28;1714281;83;21572;-56
2021/05/13 13:43:31;;;;;;;18.25;16.30;;;;;;;22.78;51.16;99576.28;1675366;85;21634;-56
2021/05/13 13:46:02;;;;;;;17.52;15.72;;;;;;;22.79;51.15;99575.27;1675498;85;21089;-56
2021/05/13 13:48:29;;;;;;;17.90;15.83;;;;;;;22.80;51.12;99571.09;1646529;87;21014;-57
2021/05/13 13:51:00;;;;;;;18.42;16.52;;;;;;;22.81;51.10;99572.73;1675494;85;21122;-57
2021/05/13 13:53:31;;;;;;;17.45;15.65;;;;;;;22.83;51.07;99579.19;1646501;87;21094;-56
2021/05/13 13:55:59;;;;;;;17.82;15.93;;;;;;;22.84;51.04;99576.85;1675382;85;21018;-56
2021/05/13 13:58:31;;;;;;;17.60;15.83;;;;;;;22.86;50.99;99576.16;1647939;86;21597;-56
2021/05/13 14:01:02;;;;;;;18.05;16.15;;;;;;;22.87;50.95;99568.50;1661595;85;20974;-56
2021/05/13 14:03:29;;;;;;;17.40;15.60;;;;;;;22.89;50.91;99566.48;1646601;87;21081;-56
2021/05/13 14:05:57;;;;;;;17.48;15.60;;;;;;;22.90;50.91;99565.46;1675417;85;21215;-56
2021/05/13 14:08:35;;;;;;;17.37;15.58;;;;;;;22.92;50.87;99567.42;1646546;87;21070;-58
2021/05/13 14:10:56;;;;;;;17.37;15.20;;;;;;;22.94;50.86;99570.70;1672269;85;21605;-58
2021/05/13 14:13:23;;;;;;;16.85;15.15;;;;;;;22.94;50.83;99568.05;1674786;85;21119;-56
2021/05/13 14:15:52;;;;;;;16.85;15.08;;;;;;;22.95;50.84;99569.69;1675388;85;21106;-56
2021/05/13 14:18:19;;;;;;;17.67;15.78;;;;;;;22.96;50.85;99563.34;1661382;85;21070;-55
2021/05/13 14:20:45;;;;;;;16.87;15.18;;;;;;;22.96;50.88;99564.66;1675350;85;21113;-57
2021/05/13 14:23:14;;;;;;;16.42;14.73;;;;;;;22.96;50.87;99565.98;1716668;83;21558;-55
2021/05/13 14:25:43;;;;;;;17.05;15.25;;;;;;;22.96;50.85;99571.30;1686500;84;21142;-58
2021/05/13 14:28:10;;;;;;;15.50;14.00;;;;;;;22.96;50.85;99571.83;1718755;83;21543;-55
2021/05/13 14:30:41;;;;;;;15.28;13.68;;;;;;;22.96;50.85;99565.19;1686398;84;21586;-56
2021/05/13 14:33:09;;;;;;;16.87;15.15;;;;;;;22.99;50.80;99566.94;1718417;83;21014;-57
2021/05/13 14:35:38;;;;;;;16.00;14.07;;;;;;;23.01;50.70;99562.25;1686422;85;21617;-57
2021/05/13 14:38:05;;;;;;;14.30;12.88;;;;;;;23.04;50.67;99566.37;1718723;83;21054;-63
2021/05/13 14:40:37;;;;;;;15.20;13.60;;;;;;;23.07;50.59;99562.48;1718779;83;21066;-65
2021/05/13 14:43:04;;;;;;;16.23;14.68;;;;;;;23.11;50.52;99566.41;1685287;85;21074;-63
2021/05/13 14:45:33;;;;;;;13.95;12.43;;;;;;;23.13;50.47;99564.38;1717467;83;21574;-62
2021/05/13 14:48:12;;;;;;;14.20;12.65;;;;;;;23.15;50.40;99566.33;1658498;86;21542;-63
2021/05/13 14:50:31;;;;;;;17.05;14.60;;;;;;;23.18;50.35;99569.40;1698906;83;21066;-61
2021/05/13 14:52:58;;;;;;;15.15;13.58;;;;;;;23.18;50.35;99569.92;1718150;83;21037;-62
2021/05/13 14:55:25;;;;;;;15.38;13.50;;;;;;;23.20;50.36;99562.58;1685888;85;21135;-62
2021/05/13 14:57:52;;;;;;;14.80;13.40;;;;;;;23.25;50.31;99561.52;1718110;83;21569;-62
2021/05/13 15:00:25;;;;;;;14.58;13.03;;;;;;;23.29;50.34;99556.63;1717726;83;21058;-61
2021/05/13 15:02:52;;;;;;;16.05;13.22;;;;;;;23.31;50.33;99558.09;1658454;86;21610;-63
2021/05/13 15:05:23;;;;;;;15.85;13.72;;;;;;;23.34;50.38;99548.09;1691608;83;21665;-60
2021/05/13 15:07:50;;;;;;;14.68;12.60;;;;;;;23.35;50.46;99549.73;1686221;84;21026;-62
2021/05/13 15:10:18;;;;;;;14.78;12.68;;;;;;;23.37;50.50;99561.78;1718343;83;20963;-65
2021/05/13 15:12:47;;;;;;;15.03;13.40;;;;;;;23.39;50.47;99553.11;1712581;83;21199;-61
2021/05/13 15:15:16;;;;;;;11.15;10.05;;;;;;;23.43;50.44;99554.36;1718382;83;21131;-63
2021/05/13 15:17:41;;;;;;;15.38;12.88;;;;;;;23.45;50.44;99549.66;1717366;83;21095;-63
2021/05/13 15:20:10;;;;;;;14.98;12.40;;;;;;;23.46;50.44;99552.64;1718330;83;21087;-61
2021/05/13 15:22:37;;;;;;;14.95;13.32;;;;;;;23.48;50.51;99555.08;1717998;83;21165;-61
2021/05/13 15:25:05;;;;;;;14.83;12.28;;;;;;;23.48;50.55;99553.75;1718401;83;21609;-62
2021/05/13 15:27:32;;;;;;;15.30;12.28;;;;;;;23.46;50.58;99546.48;1714314;83;21030;-63
2021/05/13 15:29:59;;;;;;;13.72;12.33;;;;;;;23.46;50.62;99538.52;1712194;83;21051;-63
2021/05/13 15:32:27;;;;;;;12.88;11.45;;;;;;;23.46;50.63;99551.31;1683766;84;21729;-65
2021/05/13 15:34:53;;;;;;;13.65;11.78;;;;;;;23.45;50.63;99549.66;1703880;84;21749;-63
2021/05/13 15:37:20;;;;;;;12.73;10.72;;;;;;;23.46;50.64;99551.31;1704136;84;20931;-62
2021/05/13 15:39:48;;;;;;;14.73;11.25;;;;;;;23.47;50.64;99550.78;1717050;83;21651;-62
2021/05/13 15:42:15;;;;;;;12.37;10.95;;;;;;;23.47;50.63;99554.77;1715122;83;21094;-63
2021/05/13 15:44:44;;;;;;;13.75;11.73;;;;;;;23.48;50.64;99555.08;1704545;83;21839;-63
2021/05/13 15:47:13;;;;;;;13.18;11.78;;;;;;;23.48;50.63;99550.29;1669500;84;21009;-63
2021/05/13 15:49:40;;;;;;;13.50;11.22;;;;;;;23.49;50.61;99547.42;1706456;83;21050;-62
2021/05/13 15:52:07;;;;;;;14.58;12.43;;;;;;;23.49;50.60;99546.09;1718271;83;20986;-56
2021/05/13 15:54:34;;;;;;;12.70;11.40;;;;;;;23.50;50.60;99545.08;1718133;83;21046;-57
2021/05/13 15:57:01;;;;;;;12.18;10.78;;;;;;;23.50;50.59;99549.06;1718200;83;21150;-60
2021/05/13 15:59:28;;;;;;;12.37;10.28;;;;;;;23.51;50.57;99549.38;1710199;83;20947;-60